Time;durP1;ratioP1;P1;durP2;ratioP2;P2;SDS_P1;SDS_P2;PMS_P1;PMS_P2;Temp;Humidity;BMP_temperature;BMP_pressure;BME280_temperature;BME280_humidity;BME280_pressure;Samples;Min_cycle;Max_cycle;Signal;HPM_P1;HPM_P2
2023/04/14 00:02:05;;;;;;;1.00;0.10;;;;;;;6.09;100.00;99234.75;5006241;28;20902;-76
2023/04/14 00:04:31;;;;;;;0.63;0.20;;;;;;;6.13;100.00;99241.25;5005020;28;20048;-75
2023/04/14 00:06:58;;;;;;;1.45;0.10;;;;;;;6.17;100.00;99240.00;4997442;28;20042;-75
2023/04/14 00:09:24;;;;;;;1.48;0.22;;;;;;;6.17;100.00;99246.94;5001552;28;20039;-75
2023/04/14 00:11:50;;;;;;;1.20;0.30;;;;;;;6.15;100.00;99261.78;5003059;28;20766;-76
2023/04/14 00:14:15;;;;;;;0.55;0.30;;;;;;;6.06;100.00;99263.50;5001915;28;20033;-75
2023/04/14 00:16:41;;;;;;;0.50;0.20;;;;;;;5.97;100.00;99261.75;5008177;28;20435;-75
2023/04/14 00:19:07;;;;;;;4.00;0.20;;;;;;;5.93;100.00;99253.47;4999123;28;20033;-75
2023/04/14 00:21:33;;;;;;;0.50;0.20;;;;;;;5.94;100.00;99251.72;4994553;28;20026;-75
2023/04/14 00:23:58;;;;;;;1.92;0.10;;;;;;;5.97;100.00;99251.41;5001924;28;20194;-75
2023/04/14 00:26:23;;;;;;;0.80;0.10;;;;;;;5.95;100.00;99245.59;5002877;28;20082;-75
2023/04/14 00:28:49;;;;;;;3.00;0.10;;;;;;;5.88;100.00;99241.91;5001421;28;20463;-75
2023/04/14 00:31:14;;;;;;;0.50;0.20;;;;;;;5.90;100.00;99240.03;5004849;28;20045;-76
2023/04/14 00:33:40;;;;;;;1.23;0.20;;;;;;;5.96;100.00;99229.94;5004951;28;20149;-75
2023/04/14 00:36:06;;;;;;;0.75;0.20;;;;;;;6.01;100.00;99224.31;4997173;28;20044;-75
2023/04/14 00:38:31;;;;;;;0.45;0.20;;;;;;;5.96;100.00;99213.59;5003256;28;20516;-75
2023/04/14 00:40:57;;;;;;;0.60;0.10;;;;;;;5.90;100.00;99211.59;5002350;28;20096;-75
2023/04/14 00:43:22;;;;;;;0.30;0.10;;;;;;;5.95;100.00;99217.16;5005338;28;20159;-75
2023/04/14 00:45:49;;;;;;;0.40;0.20;;;;;;;5.98;100.00;99215.09;5012421;28;20037;-75
2023/04/14 00:48:17;;;;;;;1.70;0.17;;;;;;;5.95;100.00;99217.16;5008935;28;20034;-75
2023/04/14 00:50:42;;;;;;;0.93;0.20;;;;;;;6.04;100.00;99216.28;4999820;28;20028;-74
2023/04/14 00:53:10;;;;;;;0.30;0.10;;;;;;;6.09;100.00;99213.25;5001421;28;20033;-75
2023/04/14 00:55:37;;;;;;;0.60;0.30;;;;;;;5.97;100.00;99212.66;5000233;28;20030;-75
2023/04/14 00:58:03;;;;;;;1.00;0.43;;;;;;;6.02;100.00;99205.25;5009056;28;20037;-74
2023/04/14 01:00:29;;;;;;;1.05;0.70;;;;;;;6.06;100.00;99198.84;5009008;28;20042;-75
2023/04/14 01:02:55;;;;;;;1.58;1.02;;;;;;;6.08;100.00;99198.69;5006747;28;20038;-75
2023/04/14 01:05:20;;;;;;;1.88;1.55;;;;;;;6.14;100.00;99198.94;5005469;28;20115;-75
2023/04/14 01:07:47;;;;;;;2.35;1.75;;;;;;;6.18;100.00;99197.66;5005647;28;20042;-75
2023/04/14 01:10:13;;;;;;;1.75;0.90;;;;;;;6.13;100.00;99189.53;5010030;28;20040;-75
2023/04/14 01:13:04;;;;;;;1.95;1.30;;;;;;;6.11;100.00;99194.06;5008401;28;20025;-75
2023/04/14 01:15:38;;;;;;;2.45;1.48;;;;;;;6.13;100.00;99181.78;5008214;28;20134;-75
2023/04/14 01:18:14;;;;;;;1.20;1.02;;;;;;;6.15;100.00;99195.34;4998628;28;20038;-75
2023/04/14 01:20:42;;;;;;;0.90;0.50;;;;;;;6.13;100.00;99194.72;5012552;28;20034;-75
2023/04/14 01:23:20;;;;;;;1.50;0.52;;;;;;;6.15;100.00;99197.94;5004335;28;20034;-74
2023/04/14 01:26:23;;;;;;;1.20;0.30;;;;;;;6.09;100.00;99193.38;5003002;28;20021;-75
2023/04/14 01:29:00;;;;;;;1.08;0.20;;;;;;;6.16;100.00;99202.16;5007936;28;20394;-75
2023/04/14 01:31:29;;;;;;;1.13;0.20;;;;;;;6.19;100.00;99207.03;5008976;28;20029;-75
2023/04/14 01:34:28;;;;;;;1.35;0.20;;;;;;;6.14;100.00;99211.84;5004196;28;20038;-75
2023/04/14 01:36:57;;;;;;;0.80;0.30;;;;;;;6.21;100.00;99212.06;5008508;28;20025;-75
2023/04/14 01:39:30;;;;;;;0.73;0.20;;;;;;;6.20;100.00;99213.03;5004513;28;20354;-75
2023/04/14 01:42:00;;;;;;;3.70;0.20;;;;;;;6.14;100.00;99222.22;5003524;28;20049;-75
2023/04/14 01:44:29;;;;;;;3.25;0.20;;;;;;;6.18;100.00;99217.53;5001180;28;20053;-75
2023/04/14 01:47:03;;;;;;;0.90;0.20;;;;;;;6.19;100.00;99225.13;5006332;28;20041;-75
2023/04/14 01:49:31;;;;;;;0.50;0.20;;;;;;;6.08;100.00;99232.31;5006777;28;20045;-75
2023/04/14 01:51:58;;;;;;;2.25;0.30;;;;;;;6.02;100.00;99228.53;5005267;28;20026;-75
2023/04/14 01:54:24;;;;;;;0.82;0.22;;;;;;;6.09;100.00;99232.16;5001993;28;20583;-75
2023/04/14 01:56:51;;;;;;;0.90;0.30;;;;;;;6.08;100.00;99227.97;5008587;28;20056;-75
2023/04/14 01:59:20;;;;;;;1.25;0.20;;;;;;;6.05;100.00;99217.09;5008014;28;20038;-75
2023/04/14 02:01:47;;;;;;;0.90;0.20;;;;;;;6.10;100.00;99220.88;5003323;28;20030;-75
2023/04/14 02:04:15;;;;;;;2.05;0.10;;;;;;;6.06;100.00;99229.06;5001984;28;20037;-76
2023/04/14 02:06:41;;;;;;;1.80;0.10;;;;;;;5.98;100.00;99211.69;4996735;28;20046;-75
2023/04/14 02:09:11;;;;;;;0.40;0.10;;;;;;;6.00;100.00;99212.34;5002953;28;20038;-75
2023/04/14 02:11:37;;;;;;;0.35;0.10;;;;;;;5.98;100.00;99204.75;5012976;28;20031;-75
2023/04/14 02:14:04;;;;;;;0.52;0.20;;;;;;;5.95;100.00;99205.03;5015783;28;20475;-75
2023/04/14 02:16:30;;;;;;;0.43;0.10;;;;;;;5.88;100.00;99195.38;5007766;28;20075;-75
2023/04/14 02:18:57;;;;;;;0.43;0.00;;;;;;;5.87;100.00;99201.50;5009597;28;20030;-75
2023/04/14 02:21:25;;;;;;;0.20;0.00;;;;;;;5.93;100.00;99195.78;5014187;28;20045;-75
2023/04/14 02:23:50;;;;;;;1.08;0.00;;;;;;;5.92;100.00;99181.25;5007762;28;20033;-75
2023/04/14 02:26:22;;;;;;;0.63;0.10;;;;;;;5.97;100.00;99186.78;5003607;28;20049;-75
2023/04/14 02:29:14;;;;;;;0.10;0.00;;;;;;;5.94;100.00;99180.13;5009594;28;20116;-75
2023/04/14 02:31:44;;;;;;;0.90;0.00;;;;;;;5.91;100.00;99182.19;5013923;28;20161;-75
2023/04/14 02:34:13;;;;;;;0.30;0.00;;;;;;;5.94;100.00;99169.78;5016632;28;20029;-74
2023/04/14 02:36:44;;;;;;;0.52;0.00;;;;;;;6.00;100.00;99178.75;5008938;28;20057;-75
2023/04/14 02:39:23;;;;;;;0.35;0.00;;;;;;;6.03;100.00;99175.88;5008677;28;20023;-75
2023/04/14 02:42:02;;;;;;;0.57;0.00;;;;;;;6.06;100.00;99173.00;5017529;28;20112;-75
2023/04/14 02:44:37;;;;;;;0.10;0.00;;;;;;;6.11;100.00;99177.72;5014167;28;20057;-75
2023/04/14 02:47:09;;;;;;;1.35;0.00;;;;;;;6.16;100.00;99167.72;5014686;28;20171;-75
2023/04/14 02:49:37;;;;;;;0.00;0.00;;;;;;;6.20;100.00;99175.03;5004944;28;20125;-75
2023/04/14 02:52:05;;;;;;;0.73;0.00;;;;;;;6.04;100.00;99180.06;5007363;28;20580;-75
2023/04/14 02:54:36;;;;;;;1.15;0.00;;;;;;;6.09;100.00;99184.81;5008222;28;20037;-75
2023/04/14 02:57:04;;;;;;;1.48;0.00;;;;;;;6.13;100.00;99178.38;5012666;28;20091;-75
2023/04/14 02:59:31;;;;;;;2.47;0.17;;;;;;;6.08;100.00;99171.06;5000169;28;20410;-75
2023/04/14 03:02:03;;;;;;;2.15;0.15;;;;;;;5.95;100.00;99173.19;5012666;28;20089;-75
2023/04/14 03:04:31;;;;;;;1.13;0.20;;;;;;;5.85;100.00;99170.63;5006218;28;20072;-75
2023/04/14 03:06:58;;;;;;;2.35;0.10;;;;;;;5.85;100.00;99172.41;5011394;28;20112;-75
2023/04/14 03:09:25;;;;;;;0.82;0.10;;;;;;;5.77;100.00;99169.72;5017253;28;20033;-75
2023/04/14 03:11:54;;;;;;;0.73;0.10;;;;;;;5.74;100.00;99175.19;5012112;28;20038;-75
2023/04/14 03:14:20;;;;;;;2.30;0.10;;;;;;;5.81;100.00;99174.47;5012862;28;20041;-75
2023/04/14 03:16:46;;;;;;;0.75;0.30;;;;;;;5.90;100.00;99178.00;5007548;28;20103;-75
2023/04/14 03:19:12;;;;;;;4.13;0.30;;;;;;;5.92;100.00;99181.25;5012593;28;20045;-74
2023/04/14 03:21:38;;;;;;;2.95;0.30;;;;;;;5.94;100.00;99176.75;5002668;28;20507;-75
2023/04/14 03:24:05;;;;;;;1.23;0.30;;;;;;;5.96;100.00;99170.47;5005051;28;20034;-75
2023/04/14 03:26:33;;;;;;;10.65;0.20;;;;;;;6.03;100.00;99162.94;4998951;28;20551;-75
2023/04/14 03:29:01;;;;;;;2.90;0.20;;;;;;;6.11;100.00;99164.78;5008573;28;20145;-75
2023/04/14 03:31:32;;;;;;;9.60;0.20;;;;;;;6.15;100.00;99161.72;5006697;28;20034;-75
2023/04/14 03:34:01;;;;;;;1.15;0.10;;;;;;;6.15;100.00;99155.75;5009049;28;20033;-75
2023/04/14 03:36:29;;;;;;;1.58;0.20;;;;;;;6.13;100.00;99153.34;5004185;28;20068;-75
2023/04/14 03:38:58;;;;;;;2.90;0.17;;;;;;;6.16;100.00;99160.78;5006905;28;20072;-75
2023/04/14 03:41:25;;;;;;;8.55;0.20;;;;;;;6.11;100.00;99150.09;5009532;28;20033;-75
2023/04/14 03:43:53;;;;;;;3.05;0.10;;;;;;;6.15;100.00;99153.16;5006814;28;20118;-75
2023/04/14 03:46:20;;;;;;;1.52;0.10;;;;;;;6.09;100.00;99154.59;5009363;28;20336;-75
2023/04/14 03:48:49;;;;;;;3.47;0.20;;;;;;;6.10;100.00;99158.81;5006891;28;20386;-75
2023/04/14 03:51:16;;;;;;;1.73;0.10;;;;;;;6.14;100.00;99154.16;5005441;28;20030;-75
2023/04/14 03:53:44;;;;;;;0.47;0.10;;;;;;;6.14;100.00;99160.13;5004181;28;20034;-75
2023/04/14 03:56:14;;;;;;;4.40;0.15;;;;;;;6.18;100.00;99158.84;5008285;28;20026;-75
2023/04/14 03:58:48;;;;;;;2.85;0.10;;;;;;;6.22;100.00;99165.34;5010200;28;20403;-74
2023/04/14 04:01:14;;;;;;;4.13;0.10;;;;;;;6.24;100.00;99173.78;5012565;28;20033;-74
2023/04/14 04:03:41;;;;;;;1.85;0.20;;;;;;;6.25;100.00;99178.00;5011842;28;20072;-74
2023/04/14 04:06:07;;;;;;;2.92;0.20;;;;;;;6.26;100.00;99169.28;5004066;28;20066;-74
2023/04/14 04:08:34;;;;;;;4.68;0.22;;;;;;;6.25;100.00;99183.16;5010703;28;20088;-74
2023/04/14 04:11:04;;;;;;;1.45;0.30;;;;;;;6.22;100.00;99191.22;5012106;28;20049;-74
2023/04/14 04:13:31;;;;;;;8.77;0.40;;;;;;;6.22;100.00;99182.66;5011741;28;20037;-74
2023/04/14 04:15:57;;;;;;;3.50;0.45;;;;;;;6.20;100.00;99193.13;5021599;28;20115;-74
2023/04/14 04:18:26;;;;;;;2.00;0.50;;;;;;;6.12;100.00;99200.84;5010674;28;20036;-74
2023/04/14 04:20:52;;;;;;;4.80;0.57;;;;;;;6.16;100.00;99196.16;5005874;28;20038;-74
2023/04/14 04:23:19;;;;;;;3.00;0.60;;;;;;;6.13;100.00;99204.25;5011857;28;20037;-74
2023/04/14 04:25:46;;;;;;;1.45;0.40;;;;;;;6.01;100.00;99197.66;5014247;28;20390;-74
2023/04/14 04:28:11;;;;;;;2.13;0.32;;;;;;;6.08;100.00;99196.94;5015830;28;20033;-74
2023/04/14 04:30:41;;;;;;;4.00;0.40;;;;;;;6.11;100.00;99206.16;5008406;28;20029;-74
2023/04/14 04:33:07;;;;;;;3.03;0.40;;;;;;;5.99;100.00;99201.19;5010945;28;20087;-74
2023/04/14 04:35:33;;;;;;;3.75;0.45;;;;;;;6.07;100.00;99210.00;5006613;28;20435;-74
2023/04/14 04:38:02;;;;;;;4.35;1.15;;;;;;;6.08;100.00;99216.81;5016266;28;20110;-74
2023/04/14 04:40:34;;;;;;;2.55;0.88;;;;;;;5.98;100.00;99215.09;5002974;28;20072;-74
2023/04/14 04:43:00;;;;;;;1.88;1.00;;;;;;;5.99;100.00;99213.31;5013118;28;20025;-74
2023/04/14 04:45:51;;;;;;;2.38;0.43;;;;;;;5.92;100.00;99225.19;5006716;28;20502;-74
2023/04/14 04:48:17;;;;;;;4.70;0.90;;;;;;;5.99;100.00;99224.47;4983460;28;20208;-74
2023/04/14 04:50:42;;;;;;;5.43;1.30;;;;;;;6.06;100.00;99227.28;5006680;28;20080;-74
2023/04/14 04:53:08;;;;;;;2.42;0.88;;;;;;;6.02;100.00;99227.72;5007844;28;20030;-73
2023/04/14 04:55:33;;;;;;;2.35;0.93;;;;;;;6.06;100.00;99229.06;5002313;28;20037;-74
2023/04/14 04:57:58;;;;;;;8.20;1.50;;;;;;;6.14;100.00;99232.56;5014788;28;20492;-74
2023/04/14 05:00:25;;;;;;;3.38;1.35;;;;;;;6.16;100.00;99235.78;5005543;28;20033;-74
2023/04/14 05:02:51;;;;;;;4.60;1.58;;;;;;;6.18;100.00;99241.63;5005894;28;20034;-74
2023/04/14 05:05:16;;;;;;;4.20;1.88;;;;;;;6.11;100.00;99232.84;5008110;28;20042;-73
2023/04/14 05:07:41;;;;;;;4.40;1.95;;;;;;;6.13;100.00;99241.25;5011848;28;20025;-74
2023/04/14 05:10:07;;;;;;;9.95;2.03;;;;;;;6.09;100.00;99234.75;5008267;28;20124;-73
2023/04/14 05:12:32;;;;;;;4.47;1.90;;;;;;;6.14;100.00;99237.72;5008277;28;20022;-73
2023/04/14 05:14:58;;;;;;;5.53;2.53;;;;;;;6.15;100.00;99236.72;5006593;28;20120;-74
2023/04/14 05:17:23;;;;;;;36.78;3.65;;;;;;;6.20;100.00;99242.28;5009975;28;20048;-73
2023/04/14 05:19:49;;;;;;;5.47;2.55;;;;;;;6.16;100.00;99245.31;5005264;28;20125;-74
2023/04/14 05:22:14;;;;;;;9.02;3.22;;;;;;;6.19;100.00;99245.81;5004354;28;20049;-73
2023/04/14 05:24:40;;;;;;;12.35;2.78;;;;;;;6.23;100.00;99257.50;5006214;28;20493;-73
2023/04/14 05:27:05;;;;;;;10.55;1.63;;;;;;;6.28;100.00;99257.88;5008531;28;20065;-73
2023/04/14 05:29:31;;;;;;;5.68;1.52;;;;;;;6.29;100.00;99261.28;4999315;28;20757;-74
2023/04/14 05:31:56;;;;;;;3.53;1.13;;;;;;;6.30;100.00;99261.16;5006534;28;20029;-74
2023/04/14 05:34:21;;;;;;;6.03;1.63;;;;;;;6.32;100.00;99268.75;5014903;28;20113;-74
2023/04/14 05:36:47;;;;;;;3.33;1.05;;;;;;;6.31;100.00;99283.47;5003792;28;20048;-74
2023/04/14 05:39:12;;;;;;;2.60;0.60;;;;;;;6.31;100.00;99278.28;5001593;28;20506;-73
2023/04/14 05:41:38;;;;;;;3.05;0.60;;;;;;;6.37;100.00;99283.84;4996584;28;20049;-73
2023/04/14 05:44:03;;;;;;;5.25;0.65;;;;;;;6.36;100.00;99287.38;5003439;28;20036;-73
2023/04/14 05:46:28;;;;;;;7.50;1.20;;;;;;;6.40;100.00;99284.38;5002038;28;20049;-74
2023/04/14 05:48:55;;;;;;;9.77;1.60;;;;;;;6.50;100.00;99294.66;4997203;28;20037;-74
2023/04/14 05:51:21;;;;;;;4.70;0.50;;;;;;;6.55;100.00;99288.09;5001612;28;20460;-73
2023/04/14 05:53:46;;;;;;;2.25;0.60;;;;;;;6.53;100.00;99300.34;4998837;28;20030;-74
2023/04/14 05:56:11;;;;;;;3.28;0.82;;;;;;;6.37;100.00;99294.19;4999368;28;20556;-74
2023/04/14 05:58:37;;;;;;;2.33;1.05;;;;;;;6.31;100.00;99291.22;5001653;28;20054;-74
2023/04/14 06:01:02;;;;;;;1.85;1.00;;;;;;;6.19;100.00;99296.75;5002567;28;20030;-75
2023/04/14 06:03:29;;;;;;;4.68;1.50;;;;;;;6.16;100.00;99297.84;5004711;28;20030;-74
2023/04/14 06:05:54;;;;;;;4.50;2.65;;;;;;;6.23;100.00;99296.31;5003023;28;20045;-74
2023/04/14 06:08:20;;;;;;;4.95;4.07;;;;;;;6.25;100.00;99294.38;5004837;28;20038;-74
2023/04/14 06:10:45;;;;;;;32.83;6.57;;;;;;;6.32;100.00;99286.88;5002588;28;20061;-74
2023/04/14 06:13:11;;;;;;;12.20;4.97;;;;;;;6.42;100.00;99292.78;5000526;28;20096;-74
2023/04/14 06:15:36;;;;;;;4.22;2.80;;;;;;;6.39;100.00;99289.69;4999443;28;20244;-74
2023/04/14 06:18:02;;;;;;;3.08;1.80;;;;;;;6.21;100.00;99290.47;5000110;28;20099;-74
2023/04/14 06:20:28;;;;;;;2.70;1.10;;;;;;;6.19;100.00;99284.63;5004231;28;20080;-74
2023/04/14 06:22:53;;;;;;;3.88;1.70;;;;;;;6.20;100.00;99281.06;4997439;28;20541;-74
2023/04/14 06:25:19;;;;;;;7.15;4.18;;;;;;;6.25;100.00;99281.47;4996063;28;20083;-74
2023/04/14 06:27:44;;;;;;;8.75;3.03;;;;;;;6.32;100.00;99292.84;5008905;28;20042;-75
2023/04/14 06:30:10;;;;;;;5.38;3.08;;;;;;;6.26;100.00;99290.84;4996564;28;20053;-74
2023/04/14 06:32:36;;;;;;;3.03;1.50;;;;;;;6.19;100.00;99284.63;5001634;28;20127;-74
2023/04/14 06:35:01;;;;;;;4.57;1.73;;;;;;;6.21;100.00;99274.94;5003296;28;20131;-74
2023/04/14 06:37:27;;;;;;;4.20;1.42;;;;;;;6.23;100.00;99283.38;5001263;28;20041;-75
2023/04/14 06:39:52;;;;;;;4.63;1.67;;;;;;;6.23;100.00;99275.63;4998276;28;20037;-74
2023/04/14 06:42:17;;;;;;;3.28;1.77;;;;;;;6.24;100.00;99274.66;5004492;28;20037;-74
2023/04/14 06:44:43;;;;;;;5.38;2.20;;;;;;;6.44;100.00;99272.78;4999063;28;20510;-74
2023/04/14 06:47:08;;;;;;;4.15;2.63;;;;;;;6.55;100.00;99274.31;5000956;28;20038;-74
2023/04/14 06:49:35;;;;;;;2.50;1.50;;;;;;;6.68;100.00;99266.97;5003618;28;20038;-74
2023/04/14 06:52:01;;;;;;;7.20;2.45;;;;;;;6.74;100.00;99268.97;5001841;28;20033;-75
2023/04/14 06:54:26;;;;;;;6.40;2.42;;;;;;;6.71;100.00;99271.06;4996116;28;20498;-75
2023/04/14 06:56:52;;;;;;;2.03;0.88;;;;;;;6.77;100.00;99270.47;5006009;28;20042;-74
2023/04/14 06:59:19;;;;;;;2.10;1.20;;;;;;;6.76;100.00;99267.06;4997252;28;20066;-75
2023/04/14 07:01:45;;;;;;;2.47;1.35;;;;;;;6.83;100.00;99270.69;5005248;28;20038;-75
2023/04/14 07:04:12;;;;;;;1.77;0.70;;;;;;;6.83;100.00;99270.69;5007953;28;20444;-75
2023/04/14 07:06:38;;;;;;;2.15;0.60;;;;;;;6.85;100.00;99262.75;5013347;28;20045;-75
2023/04/14 07:09:03;;;;;;;2.20;0.30;;;;;;;6.69;100.00;99266.03;5015899;28;20041;-75
2023/04/14 07:11:29;;;;;;;1.27;0.30;;;;;;;6.52;100.00;99277.22;5011599;28;20037;-75
2023/04/14 07:13:54;;;;;;;1.85;0.30;;;;;;;6.39;100.00;99269.00;5001887;28;20042;-75
2023/04/14 07:16:19;;;;;;;2.30;0.30;;;;;;;6.37;100.00;99270.91;5007638;28;20395;-73
2023/04/14 07:18:45;;;;;;;1.75;0.60;;;;;;;6.46;100.00;99278.63;5002691;28;20037;-75
2023/04/14 07:21:10;;;;;;;1.85;0.98;;;;;;;6.65;100.00;99280.22;5011294;28;20120;-75
2023/04/14 07:23:36;;;;;;;2.30;1.23;;;;;;;6.77;100.00;99271.28;5005527;28;20029;-76
2023/04/14 07:26:01;;;;;;;3.60;1.20;;;;;;;6.80;100.00;99270.97;5013351;28;20468;-76
2023/04/14 07:28:27;;;;;;;3.15;1.70;;;;;;;7.00;100.00;99266.44;5017973;28;20087;-75
2023/04/14 07:30:53;;;;;;;2.97;1.33;;;;;;;7.01;100.00;99277.63;5026282;28;20051;-76
2023/04/14 07:33:20;;;;;;;6.30;2.30;;;;;;;6.93;100.00;99276.59;5018556;28;20086;-76
2023/04/14 07:35:47;;;;;;;4.20;2.03;;;;;;;6.89;100.00;99285.63;5018175;28;20049;-75
2023/04/14 07:38:12;;;;;;;3.28;1.92;;;;;;;6.74;100.00;99289.69;5013564;28;20032;-75
2023/04/14 07:40:38;;;;;;;3.28;1.48;;;;;;;6.82;100.00;99299.31;5017290;28;20034;-75
2023/04/14 07:43:03;;;;;;;2.80;1.13;;;;;;;6.86;100.00;99304.03;5017030;28;20620;-75
2023/04/14 07:45:29;;;;;;;6.57;2.00;;;;;;;7.08;100.00;99312.31;5020072;28;20022;-75
2023/04/14 07:47:55;;;;;;;4.93;1.85;;;;;;;7.01;100.00;99322.47;5027105;28;20517;-75
2023/04/14 07:50:21;;;;;;;2.85;1.30;;;;;;;6.82;100.00;99320.84;5023188;28;20042;-75
2023/04/14 07:52:46;;;;;;;4.38;1.25;;;;;;;6.95;100.00;99326.47;5010762;28;20100;-76
2023/04/14 07:55:11;;;;;;;3.70;1.20;;;;;;;7.02;100.00;99331.84;5008174;28;20616;-75
2023/04/14 07:57:37;;;;;;;7.38;2.00;;;;;;;7.08;100.00;99338.22;5011372;28;20181;-76
2023/04/14 08:00:03;;;;;;;1.77;0.80;;;;;;;7.16;100.00;99339.06;5018939;28;20021;-75
2023/04/14 08:02:29;;;;;;;1.77;0.93;;;;;;;7.13;100.00;99343.75;5014717;28;20112;-74
2023/04/14 08:04:54;;;;;;;6.82;1.50;;;;;;;7.23;100.00;99349.66;5006079;28;20452;-74
2023/04/14 08:07:20;;;;;;;4.13;1.25;;;;;;;7.38;100.00;99348.16;5008542;28;20037;-74
2023/04/14 08:09:47;;;;;;;7.18;2.20;;;;;;;7.36;100.00;99352.69;5010155;28;20040;-73
2023/04/14 08:12:13;;;;;;;4.72;1.35;;;;;;;7.29;100.00;99352.47;5014670;28;20404;-73
2023/04/14 08:14:38;;;;;;;3.03;1.10;;;;;;;7.38;100.00;99355.13;5010853;28;20034;-74
2023/04/14 08:17:03;;;;;;;2.85;0.82;;;;;;;7.31;100.00;99358.31;5010040;28;20033;-74
2023/04/14 08:19:30;;;;;;;3.67;0.93;;;;;;;7.31;100.00;99362.69;5008669;28;20036;-74
2023/04/14 08:21:55;;;;;;;1.23;0.80;;;;;;;7.42;100.00;99364.22;5008456;28;20038;-74
2023/04/14 08:24:21;;;;;;;2.88;0.77;;;;;;;7.44;100.00;99370.06;5009657;28;21335;-74
2023/04/14 08:26:46;;;;;;;4.00;1.13;;;;;;;7.36;100.00;99370.81;5013265;28;20025;-74
2023/04/14 08:29:12;;;;;;;4.45;1.20;;;;;;;7.38;100.00;99376.66;5008433;28;20037;-73
2023/04/14 08:31:37;;;;;;;4.75;0.77;;;;;;;7.40;100.00;99385.09;5009746;28;20043;-73
2023/04/14 08:34:03;;;;;;;3.38;0.88;;;;;;;7.48;100.00;99379.16;4998573;28;20504;-74
2023/04/14 08:36:28;;;;;;;1.00;0.60;;;;;;;7.48;100.00;99379.97;5003770;28;20037;-74
2023/04/14 08:38:53;;;;;;;3.50;1.50;;;;;;;7.41;100.00;99384.13;5005722;28;20037;-74
2023/04/14 08:41:21;;;;;;;3.63;2.22;;;;;;;7.42;100.00;99382.38;5006503;28;20029;-74
2023/04/14 08:43:47;;;;;;;3.28;2.17;;;;;;;7.53;100.00;99382.94;5004828;28;20060;-74
2023/04/14 08:46:14;;;;;;;2.92;1.10;;;;;;;7.66;100.00;99377.34;5016158;28;20029;-74
2023/04/14 08:48:42;;;;;;;3.40;0.60;;;;;;;7.71;100.00;99379.47;5019935;28;20033;-74
2023/04/14 08:51:20;;;;;;;2.40;0.80;;;;;;;7.76;100.00;99380.66;5022184;28;20112;-74
2023/04/14 08:53:47;;;;;;;1.30;0.45;;;;;;;7.85;100.00;99373.72;5010958;28;20037;-74
2023/04/14 08:56:15;;;;;;;2.67;0.30;;;;;;;7.80;100.00;99370.78;5008090;28;20041;-74
2023/04/14 08:58:40;;;;;;;1.45;0.40;;;;;;;7.66;100.00;99378.16;5019751;28;20041;-73
2023/04/14 09:01:07;;;;;;;0.95;0.30;;;;;;;7.62;100.00;99366.44;5008688;28;20052;-73
2023/04/14 09:03:33;;;;;;;0.82;0.28;;;;;;;7.66;100.00;99362.59;5008699;28;20127;-73
2023/04/14 09:05:59;;;;;;;1.00;0.40;;;;;;;7.50;100.00;99372.06;5010113;28;20483;-72
2023/04/14 09:08:26;;;;;;;0.77;0.20;;;;;;;7.53;100.00;99372.56;5003885;28;20049;-73
2023/04/14 09:10:53;;;;;;;0.95;0.30;;;;;;;7.54;100.00;99371.59;5009183;28;20045;-73
2023/04/14 09:13:21;;;;;;;1.38;0.20;;;;;;;7.33;100.00;99371.94;4998899;28;20081;-72
2023/04/14 09:15:48;;;;;;;0.68;0.20;;;;;;;7.41;100.00;99378.97;5011226;28;20042;-73
2023/04/14 09:18:14;;;;;;;1.52;0.60;;;;;;;7.65;100.00;99386.06;5016110;28;20048;-73
2023/04/14 09:20:40;;;;;;;0.98;0.52;;;;;;;7.78;100.00;99386.50;5007999;28;20032;-72
2023/04/14 09:23:08;;;;;;;1.00;0.20;;;;;;;7.81;100.00;99378.41;5014536;28;20029;-73
2023/04/14 09:25:34;;;;;;;1.15;0.40;;;;;;;7.94;100.00;99386.59;5010054;28;20539;-73
2023/04/14 09:27:59;;;;;;;0.88;0.30;;;;;;;8.07;100.00;99382.75;5015997;28;20040;-73
2023/04/14 09:30:25;;;;;;;0.93;0.20;;;;;;;7.97;100.00;99380.28;5010647;28;20121;-73
2023/04/14 09:32:55;;;;;;;0.40;0.10;;;;;;;8.17;100.00;99386.03;5009029;28;20081;-73
2023/04/14 09:35:20;;;;;;;0.68;0.15;;;;;;;7.90;100.00;99382.69;5007542;28;20080;-73
2023/04/14 09:37:47;;;;;;;0.30;0.10;;;;;;;7.77;100.00;99392.66;5011084;28;20030;-72
2023/04/14 09:40:29;;;;;;;0.75;0.15;;;;;;;7.63;100.00;99394.00;5015271;28;20056;-72
2023/04/14 09:42:56;;;;;;;1.63;0.10;;;;;;;7.81;100.00;99395.75;5006749;28;20546;-71
2023/04/14 09:45:21;;;;;;;4.28;0.45;;;;;;;7.80;100.00;99396.72;5004214;28;20084;-71
2023/04/14 09:47:47;;;;;;;0.93;0.20;;;;;;;7.93;100.00;99397.13;5010801;28;20042;-71
2023/04/14 09:50:13;;;;;;;1.35;0.10;;;;;;;8.11;100.00;99407.41;5013684;28;20044;-71
2023/04/14 09:52:47;;;;;;;2.17;0.20;;;;;;;8.19;100.00;99405.69;5008518;28;20502;-72
2023/04/14 09:55:15;;;;;;;1.50;0.35;;;;;;;8.24;100.00;99402.63;5005037;28;20389;-71
2023/04/14 09:57:42;;;;;;;1.85;0.30;;;;;;;8.14;100.00;99404.50;5011479;28;20030;-72
2023/04/14 10:00:18;;;;;;;0.35;0.10;;;;;;;7.97;100.00;99404.44;5007390;28;20060;-72
2023/04/14 10:02:48;;;;;;;0.20;0.00;;;;;;;8.05;100.00;99392.47;4999998;28;20117;-72
2023/04/14 10:05:13;;;;;;;0.50;0.10;;;;;;;8.15;100.00;99393.97;4993868;28;20046;-71
2023/04/14 10:07:41;;;;;;;0.73;0.20;;;;;;;8.35;100.00;99404.16;4993344;28;20037;-71
2023/04/14 10:10:12;;;;;;;1.73;0.50;;;;;;;8.46;100.00;99406.50;4991926;28;20069;-71
2023/04/14 10:12:40;;;;;;;0.22;0.10;;;;;;;8.35;100.00;99411.94;4991436;28;20442;-72
2023/04/14 10:15:06;;;;;;;0.32;0.10;;;;;;;8.19;100.00;99410.88;4998765;28;20039;-72
2023/04/14 10:17:32;;;;;;;0.70;0.30;;;;;;;8.07;100.00;99419.88;4997268;28;20472;-72
2023/04/14 10:19:57;;;;;;;0.75;0.20;;;;;;;8.19;100.00;99416.06;5005043;28;20034;-72
2023/04/14 10:22:26;;;;;;;0.63;0.20;;;;;;;8.40;100.00;99412.31;4993463;28;20037;-72
2023/04/14 10:24:52;;;;;;;0.70;0.20;;;;;;;8.42;100.00;99425.94;5002782;28;20066;-72
2023/04/14 10:27:18;;;;;;;0.82;0.20;;;;;;;8.35;100.00;99430.13;5007393;28;20033;-72
2023/04/14 10:29:43;;;;;;;0.22;0.10;;;;;;;8.20;100.00;99433.25;4994879;28;20038;-72
2023/04/14 10:32:12;;;;;;;0.63;0.10;;;;;;;8.08;100.00;99429.28;4993980;28;20076;-72
2023/04/14 10:34:51;;;;;;;0.50;0.10;;;;;;;8.12;100.00;99430.59;4998739;28;20069;-72
2023/04/14 10:37:17;;;;;;;0.70;0.20;;;;;;;8.26;100.00;99426.63;4997341;28;20044;-72
2023/04/14 10:39:42;;;;;;;0.63;0.20;;;;;;;8.32;100.00;99426.88;4989594;28;20038;-72
2023/04/14 10:42:08;;;;;;;0.50;0.10;;;;;;;8.42;100.00;99425.94;4999951;28;20040;-72
2023/04/14 10:44:35;;;;;;;0.40;0.20;;;;;;;8.39;100.00;99426.25;5000964;28;20034;-72
2023/04/14 10:47:03;;;;;;;0.77;0.22;;;;;;;8.27;100.00;99418.69;5008216;28;20116;-72
2023/04/14 10:49:30;;;;;;;1.27;0.10;;;;;;;8.29;100.00;99426.31;4998450;28;20030;-72
2023/04/14 10:52:02;;;;;;;1.08;0.20;;;;;;;8.28;100.00;99425.50;4996225;28;20038;-72
2023/04/14 10:54:59;;;;;;;0.55;0.20;;;;;;;8.23;100.00;99427.75;5004503;28;20530;-73
2023/04/14 10:57:26;;;;;;;0.73;0.20;;;;;;;8.45;100.00;99425.63;4995295;28;20112;-74
2023/04/14 10:59:57;;;;;;;1.85;0.20;;;;;;;8.68;100.00;99426.66;4999167;28;20114;-73
2023/04/14 11:02:33;;;;;;;0.80;0.20;;;;;;;8.53;100.00;99430.81;4998510;28;20045;-73
2023/04/14 11:05:10;;;;;;;0.43;0.13;;;;;;;8.32;100.00;99428.63;4996872;28;20066;-73
2023/04/14 11:07:46;;;;;;;1.10;0.20;;;;;;;8.26;100.00;99426.63;4997586;28;20117;-73
2023/04/14 11:10:20;;;;;;;0.70;0.10;;;;;;;8.41;100.00;99421.72;4997773;28;20038;-73
2023/04/14 11:12:48;;;;;;;1.08;0.10;;;;;;;8.66;100.00;99418.22;4998996;28;20042;-71
2023/04/14 11:15:15;;;;;;;0.95;0.20;;;;;;;8.91;100.00;99427.72;5004239;28;20042;-74
2023/04/14 11:17:44;;;;;;;2.80;0.20;;;;;;;8.87;100.00;99421.22;4994759;28;20038;-76
2023/04/14 11:20:18;;;;;;;0.63;0.20;;;;;;;8.90;100.00;99420.91;5000012;28;20030;-77
2023/04/14 11:22:47;;;;;;;1.00;0.20;;;;;;;9.16;100.00;99409.56;4995608;28;20035;-76
2023/04/14 11:25:14;;;;;;;3.90;0.13;;;;;;;9.28;100.00;99410.88;5001351;28;20027;-76
2023/04/14 11:27:40;;;;;;;0.55;0.10;;;;;;;9.12;100.00;99408.25;4993074;28;20030;-76
2023/04/14 11:30:08;;;;;;;1.70;0.20;;;;;;;9.23;100.00;99410.53;4999401;28;20524;-76
2023/04/14 11:32:50;;;;;;;0.30;0.10;;;;;;;9.36;100.00;99410.88;5016910;28;20495;-75
2023/04/14 11:35:21;;;;;;;0.20;0.10;;;;;;;9.49;100.00;99400.78;5011270;28;20026;-75
2023/04/14 11:37:47;;;;;;;0.30;0.10;;;;;;;9.48;100.00;99406.16;5013929;28;20053;-75